createdAt,value
2022-11-23T14:06:28.575Z,6.22
2022-11-23T14:09:08.633Z,6.26
2022-11-23T14:11:51.212Z,6.41
2022-11-23T14:14:22.301Z,6.60
2022-11-23T14:17:09.177Z,6.69
2022-11-23T14:20:19.464Z,6.81
2022-11-23T14:23:29.830Z,6.94
2022-11-23T14:26:32.396Z,7.08
2022-11-23T14:29:38.007Z,7.23
2022-11-23T14:32:16.133Z,7.38
2022-11-23T14:34:53.719Z,7.54
2022-11-23T14:38:00.124Z,7.47
2022-11-23T14:40:38.187Z,6.68
2022-11-23T14:43:14.112Z,6.03
2022-11-23T14:45:43.385Z,5.53
2022-11-23T14:48:33.366Z,5.05
2022-11-23T14:51:11.484Z,4.56
2022-11-23T14:53:46.717Z,4.42
2022-11-23T14:56:27.859Z,4.98
2022-11-23T14:59:02.653Z,5.52
2022-11-23T15:01:31.560Z,5.90
2022-11-23T15:04:07.675Z,6.22
2022-11-23T15:06:45.487Z,6.53
2022-11-23T15:09:28.124Z,6.73
2022-11-23T15:12:26.644Z,6.86
2022-11-23T15:14:59.720Z,6.80
2022-11-23T15:17:28.190Z,6.74
2022-11-23T15:19:58.612Z,6.63
2022-11-23T15:22:28.309Z,6.60
2022-11-23T15:25:08.462Z,6.54
2022-11-23T15:27:40.950Z,6.44
2022-11-23T15:30:27.147Z,6.41
2022-11-23T15:33:01.220Z,6.40
2022-11-23T15:35:38.216Z,6.38
2022-11-23T15:38:19.070Z,6.34
2022-11-23T15:40:51.487Z,6.40
2022-11-23T15:43:20.371Z,6.57
2022-11-23T15:45:48.582Z,6.62
2022-11-23T15:48:27.165Z,6.57
2022-11-23T15:51:00.302Z,6.55
2022-11-23T15:53:32.143Z,6.55
2022-11-23T15:56:03.945Z,6.51
2022-11-23T15:58:34.213Z,6.48
2022-11-23T16:01:14.367Z,6.44
2022-11-23T16:04:01.043Z,6.35
2022-11-23T16:06:42.458Z,6.24
2022-11-23T16:09:51.673Z,6.21
2022-11-23T16:12:33.713Z,6.23
2022-11-23T16:15:41.760Z,6.24
2022-11-23T16:18:13.785Z,6.26
2022-11-23T16:21:14.101Z,6.28
2022-11-23T16:23:45.843Z,6.31
2022-11-23T16:26:14.723Z,6.37
2022-11-23T16:28:57.322Z,6.41
2022-11-23T16:31:42.607Z,6.43
2022-11-23T16:34:18.259Z,6.48
2022-11-23T16:36:47.236Z,6.55
2022-11-23T16:39:15.553Z,6.64
2022-11-23T16:41:43.913Z,6.72
2022-11-23T16:44:12.787Z,6.76
2022-11-23T16:46:43.761Z,6.78
2022-11-23T16:49:17.737Z,6.78
2022-11-23T16:51:56.228Z,6.72
2022-11-23T16:54:25.900Z,6.68
2022-11-23T16:56:54.162Z,6.67
2022-11-23T16:59:23.870Z,6.64
2022-11-23T17:01:56.912Z,6.62
2022-11-23T17:04:26.694Z,6.57
2022-11-23T17:06:55.764Z,6.56
2022-11-23T17:09:23.978Z,6.58
2022-11-23T17:11:52.359Z,6.48
2022-11-23T17:14:28.068Z,6.37
2022-11-23T17:17:02.076Z,6.35
2022-11-23T17:19:31.389Z,6.33
2022-11-23T17:21:59.837Z,6.25
2022-11-23T17:24:28.298Z,6.19
2022-11-23T17:26:56.867Z,6.18
2022-11-23T17:29:25.318Z,6.19
2022-11-23T17:31:53.968Z,6.20
2022-11-23T17:34:22.539Z,6.23
2022-11-23T17:36:52.259Z,6.21
2022-11-23T17:39:25.642Z,6.19
2022-11-23T17:41:53.972Z,6.22
2022-11-23T17:44:22.157Z,6.22
2022-11-23T17:46:54.748Z,6.23
2022-11-23T17:49:28.291Z,6.25
2022-11-23T17:51:57.269Z,6.23
2022-11-23T17:54:26.095Z,6.26
2022-11-23T17:56:54.627Z,6.28
2022-11-23T17:59:23.337Z,6.27
2022-11-23T18:01:51.898Z,6.26
2022-11-23T18:04:20.517Z,6.23
2022-11-23T18:06:48.729Z,6.27
2022-11-23T18:09:17.263Z,6.27
2022-11-23T18:11:45.837Z,6.22
2022-11-23T18:14:14.357Z,6.16
2022-11-23T18:16:42.795Z,6.11
2022-11-23T18:19:12.124Z,6.08
2022-11-23T18:21:40.969Z,6.08
2022-11-23T18:24:09.194Z,6.09
2022-11-23T18:26:38.057Z,6.12
2022-11-23T18:29:06.534Z,6.09
2022-11-23T18:31:35.075Z,6.07
2022-11-23T18:34:05.253Z,6.05
2022-11-23T18:36:33.403Z,6.00
2022-11-23T18:39:21.036Z,5.93
2022-11-23T18:41:49.224Z,5.91
2022-11-23T18:44:17.372Z,5.89
2022-11-23T18:46:46.175Z,5.98
2022-11-23T18:49:14.412Z,6.19
2022-11-23T18:51:42.719Z,6.38
2022-11-23T18:54:11.636Z,6.57
2022-11-23T18:56:39.957Z,6.73
2022-11-23T18:59:19.177Z,6.81
2022-11-23T19:01:57.857Z,6.74
2022-11-23T19:04:26.512Z,6.69
2022-11-23T19:06:54.638Z,6.64
2022-11-23T19:09:23.645Z,6.61
2022-11-23T19:11:51.885Z,6.59
2022-11-23T19:14:20.076Z,6.58
2022-11-23T19:16:48.867Z,6.58
2022-11-23T19:19:18.632Z,6.58
2022-11-23T19:21:47.252Z,6.60
2022-11-23T19:24:15.604Z,6.66
2022-11-23T19:26:45.001Z,6.68
2022-11-23T19:29:13.958Z,6.63
2022-11-23T19:31:42.544Z,6.49
2022-11-23T19:34:11.033Z,6.40
2022-11-23T19:36:40.794Z,6.39
2022-11-23T19:39:10.381Z,6.36
2022-11-23T19:41:38.925Z,6.32
2022-11-23T19:44:09.350Z,6.27
2022-11-23T19:46:37.921Z,6.17
2022-11-23T19:49:08.394Z,6.06
2022-11-23T19:51:37.047Z,6.00
2022-11-23T19:54:06.915Z,5.83
2022-11-23T19:56:37.341Z,5.66
2022-11-23T19:59:06.449Z,5.55
2022-11-23T20:01:36.612Z,5.50
2022-11-23T20:04:09.141Z,5.51
2022-11-23T20:06:42.740Z,5.53
2022-11-23T20:09:16.856Z,5.56
2022-11-23T20:11:50.372Z,5.54
2022-11-23T20:14:19.890Z,5.46
2022-11-23T20:16:48.624Z,5.42
2022-11-23T20:19:17.267Z,5.36
2022-11-23T20:21:45.787Z,5.31
2022-11-23T20:24:15.700Z,5.28
2022-11-23T20:26:43.978Z,5.31
2022-11-23T20:29:13.849Z,5.35
2022-11-23T20:31:42.997Z,5.36
2022-11-23T20:34:16.704Z,5.35
2022-11-23T20:36:47.196Z,5.38
2022-11-23T20:39:16.227Z,5.38
2022-11-23T20:41:45.201Z,5.41
2022-11-23T20:44:15.043Z,5.45
2022-11-23T20:49:32.832Z,5.54
2022-11-23T20:52:02.260Z,5.54
2022-11-23T20:54:30.913Z,5.54
2022-11-23T20:57:00.733Z,5.54
2022-11-23T20:59:29.295Z,5.46
2022-11-23T21:01:57.620Z,5.49
2022-11-23T21:04:26.702Z,5.54
2022-11-23T21:06:55.151Z,5.55
2022-11-23T21:09:23.743Z,5.57
2022-11-23T21:12:11.182Z,5.60
2022-11-23T21:14:39.576Z,5.61
2022-11-23T21:17:08.109Z,5.61
2022-11-23T21:19:42.202Z,5.61
2022-11-23T21:22:12.843Z,5.62
2022-11-23T21:24:41.516Z,5.69
2022-11-23T21:27:13.169Z,5.76
2022-11-23T21:29:44.037Z,5.75
2022-11-23T21:32:15.227Z,5.69
2022-11-23T21:34:43.611Z,5.64
2022-11-23T21:37:12.744Z,5.62
2022-11-23T21:39:42.225Z,5.61
2022-11-23T21:42:11.187Z,5.59
2022-11-23T21:44:39.406Z,5.59
2022-11-23T21:47:08.008Z,5.54
2022-11-23T21:49:36.369Z,5.48
2022-11-23T21:52:04.763Z,5.41
2022-11-23T21:54:33.448Z,5.36
2022-11-23T21:57:01.948Z,5.37
2022-11-23T21:59:30.329Z,5.38
2022-11-23T22:02:00.741Z,5.41
2022-11-23T22:04:29.032Z,5.42
2022-11-23T22:06:57.591Z,5.36
2022-11-23T22:09:26.776Z,5.28
2022-11-23T22:11:54.994Z,5.25
2022-11-23T22:14:23.460Z,5.19
2022-11-23T22:16:54.059Z,5.20
2022-11-23T22:19:22.424Z,5.24
2022-11-23T22:21:50.847Z,5.27
2022-11-23T22:24:21.556Z,5.29
2022-11-23T22:26:50.062Z,5.30
2022-11-23T22:29:18.568Z,5.32
2022-11-23T22:31:47.276Z,5.33
2022-11-23T22:34:15.620Z,5.33
2022-11-23T22:36:43.939Z,5.21
2022-11-23T22:39:12.757Z,5.13
2022-11-23T22:41:41.240Z,5.09
2022-11-23T22:44:10.859Z,5.10
2022-11-23T22:46:40.337Z,5.13
2022-11-23T22:49:08.596Z,5.11
2022-11-23T22:51:36.970Z,5.06
2022-11-23T22:54:05.791Z,5.01
2022-11-23T22:56:34.345Z,5.03
2022-11-23T22:59:02.657Z,5.09
2022-11-23T23:01:32.067Z,5.11
2022-11-23T23:04:02.582Z,5.15
2022-11-23T23:06:36.681Z,5.13
2022-11-23T23:09:07.144Z,5.13
2022-11-23T23:11:36.641Z,5.21
2022-11-23T23:14:06.433Z,5.23
2022-11-23T23:16:35.260Z,5.22
2022-11-23T23:19:04.265Z,5.19
2022-11-23T23:21:32.869Z,5.17
2022-11-23T23:24:01.499Z,5.08
2022-11-23T23:26:30.591Z,4.99
2022-11-23T23:29:00.995Z,5.00
2022-11-23T23:31:30.176Z,5.05
2022-11-23T23:33:59.665Z,5.05
2022-11-23T23:36:28.823Z,5.03
2022-11-23T23:38:57.975Z,4.98
2022-11-23T23:41:26.296Z,4.90
2022-11-23T23:43:54.841Z,4.82
2022-11-23T23:46:23.174Z,4.84
2022-11-23T23:48:51.891Z,4.86
2022-11-23T23:51:24.909Z,4.80
2022-11-23T23:53:53.415Z,4.76
2022-11-23T23:56:27.695Z,4.74
2022-11-23T23:58:57.960Z,4.69
